Time;durP1;ratioP1;P1;durP2;ratioP2;P2;SDS_P1;SDS_P2;PMS_P1;PMS_P2;Temp;Humidity;BMP_temperature;BMP_pressure;BME280_temperature;BME280_humidity;BME280_pressure;Samples;Min_cycle;Max_cycle;Signal;HPM_P1;HPM_P2
2022/03/15 00:00:33;;;;;;;17.90;8.63;;;-3.00;1.00;;;-2.15;85.89;100812.31;4840214;28;128728;-86
2022/03/15 00:03:02;;;;;;;17.55;8.93;;;-2.90;1.00;;;-2.13;85.88;100807.66;4840921;28;117320;-86
2022/03/15 00:05:31;;;;;;;14.68;8.70;;;-3.00;1.00;;;-2.11;86.12;100802.94;4871969;28;114223;-87
2022/03/15 00:08:09;;;;;;;17.60;8.35;;;-3.00;1.00;;;-2.09;85.62;100793.75;4840740;28;127798;-88
2022/03/15 00:10:43;;;;;;;15.07;8.18;;;-3.10;1.00;;;-2.11;85.40;100801.09;4857446;28;129333;-86
2022/03/15 00:13:20;;;;;;;16.30;9.20;;;-3.10;1.00;;;-2.20;86.48;100792.47;4871635;28;118851;-88
2022/03/15 00:15:49;;;;;;;16.70;8.77;;;-3.00;1.00;;;-2.21;86.34;100796.13;4840461;28;114410;-87
2022/03/15 00:18:20;;;;;;;16.88;8.57;;;-3.10;1.00;;;-2.21;86.10;100801.47;4839903;28;129026;-87
2022/03/15 00:20:50;;;;;;;17.05;7.63;;;-3.10;1.00;;;-2.21;86.38;100805.97;4871514;28;127319;-88
2022/03/15 00:23:18;;;;;;;17.98;8.93;;;-3.10;1.00;;;-2.23;85.97;100797.34;4855759;28;118914;-87
2022/03/15 00:25:50;;;;;;;16.27;8.50;;;-3.20;1.00;;;-2.24;86.29;100799.19;4854124;28;113346;-87
2022/03/15 00:28:24;;;;;;;21.08;8.95;;;-3.20;1.00;;;-2.27;86.35;100794.25;4840608;28;129108;-86
2022/03/15 00:30:53;;;;;;;17.13;8.30;;;-3.20;1.00;;;-2.26;86.22;100793.25;4855932;28;129459;-87
2022/03/15 00:33:25;;;;;;;18.10;7.93;;;-3.20;1.00;;;-2.27;86.51;100791.59;4858847;28;117818;-86
2022/03/15 00:36:01;;;;;;;16.58;8.65;;;-3.20;1.00;;;-2.29;86.93;100793.66;4835330;28;113323;-85
2022/03/15 00:38:32;;;;;;;18.23;8.10;;;-3.20;1.00;;;-2.26;87.65;100793.25;4849643;28;128323;-85
2022/03/15 00:41:02;;;;;;;15.45;8.02;;;-3.10;1.00;;;-2.20;87.13;100795.13;4848941;28;128048;-85
2022/03/15 00:44:18;;;;;;;16.38;8.38;;;-3.10;1.00;;;-2.25;87.71;100786.91;4850317;28;117269;-85
2022/03/15 00:47:05;;;;;;;15.77;8.07;;;-3.10;1.00;;;-2.09;88.50;100787.59;4862857;28;115155;-86
2022/03/15 00:49:35;;;;;;;13.50;7.93;;;-2.60;1.00;;;-1.96;88.36;100787.69;4865428;28;128259;-85
2022/03/15 00:52:05;;;;;;;17.02;8.27;;;-2.60;1.00;;;-1.91;87.89;100784.44;4849274;28;127746;-84
2022/03/15 00:54:36;;;;;;;18.98;8.27;;;-2.60;1.00;;;-1.88;87.46;100778.72;4865118;28;116983;-85
2022/03/15 00:57:07;;;;;;;15.63;7.60;;;-2.60;1.00;;;-1.84;87.58;100780.78;4849700;28;114722;-86
2022/03/15 00:59:37;;;;;;;12.60;7.75;;;-2.60;1.00;;;-1.87;86.99;100778.53;4849856;28;128132;-84
2022/03/15 01:02:05;;;;;;;15.70;7.57;;;-2.60;1.00;;;-1.84;87.38;100775.47;4850510;28;127713;-85
2022/03/15 02:09:16;;;;;;;15.13;7.55;;;-3.00;1.00;;;-2.50;88.24;100743.19;4894188;28;118968;-86
2022/03/15 02:11:45;;;;;;;19.73;8.70;;;-3.10;1.00;;;-2.45;87.86;100743.41;4860574;28;113978;-86
2022/03/15 02:14:14;;;;;;;17.85;8.38;;;-3.20;1.00;;;-2.49;88.05;100739.50;4845162;28;129200;-88
2022/03/15 02:16:43;;;;;;;13.18;7.45;;;-3.30;1.00;;;-2.54;88.41;100735.59;4860127;28;128213;-87
2022/03/15 02:19:12;;;;;;;18.55;8.25;;;-3.20;1.00;;;-2.57;88.39;100749.28;4860262;28;118745;-85
2022/03/15 02:21:43;;;;;;;18.35;8.75;;;-3.20;1.00;;;-2.59;88.68;100745.97;4861311;28;114650;-86
2022/03/15 02:24:12;;;;;;;16.20;8.77;;;-3.20;1.00;;;-2.65;89.78;100752.09;4861152;28;129371;-86
2022/03/15 02:26:49;;;;;;;15.27;8.30;;;-3.00;1.00;;;-2.61;90.35;100750.66;4877040;28;128917;-87
2022/03/15 02:29:18;;;;;;;17.65;8.43;;;-3.00;1.00;;;-2.66;90.72;100760.25;4861932;28;118472;-86
2022/03/15 02:31:47;;;;;;;16.10;8.43;;;-2.90;1.00;;;-2.57;90.81;100757.25;4877346;28;115587;-86
2022/03/15 02:34:19;;;;;;;18.05;9.15;;;-2.80;1.00;;;-2.58;91.13;100752.13;4861294;28;128901;-87
2022/03/15 02:36:50;;;;;;;16.48;8.95;;;-2.70;1.00;;;-2.58;91.34;100750.28;4861036;28;127833;-87
2022/03/15 02:39:18;;;;;;;17.25;8.30;;;-2.70;1.00;;;-2.64;91.96;100743.09;4861630;28;117751;-86
2022/03/15 02:41:48;;;;;;;15.75;8.75;;;-2.70;1.00;;;-2.59;91.49;100745.97;4862535;28;114330;-87
2022/03/15 02:44:16;;;;;;;17.15;8.65;;;-2.70;1.00;;;-2.58;91.38;100744.97;4861459;28;129933;-85
2022/03/15 02:46:49;;;;;;;21.75;8.75;;;-2.70;1.00;;;-2.65;91.21;100746.78;4860999;28;129045;-87
2022/03/15 02:49:49;;;;;;;18.23;8.90;;;-2.80;1.00;;;-2.69;91.55;100756.13;4862818;28;118510;-88
2022/03/15 02:52:20;;;;;;;19.05;9.60;;;-2.80;1.00;;;-2.67;91.79;100743.47;4862237;28;114767;-87
2022/03/15 02:54:49;;;;;;;15.98;8.80;;;-2.80;1.00;;;-2.73;91.07;100749.56;4845717;28;128818;-86
2022/03/15 02:57:24;;;;;;;17.20;8.80;;;-3.00;1.00;;;-2.81;91.74;100745.22;4844326;28;128744;-87
2022/03/15 02:59:56;;;;;;;15.77;8.95;;;-3.00;1.00;;;-2.81;91.69;100742.56;4846741;28;116714;-86
2022/03/15 03:02:27;;;;;;;19.73;8.90;;;-3.00;1.00;;;-2.79;91.81;100745.00;4861419;28;113315;-87
2022/03/15 03:08:10;;;;;;;16.13;9.27;;;-3.00;1.00;;;-3.00;92.50;100743.22;4876619;28;129683;-88
2022/03/15 03:10:41;;;;;;;16.95;8.73;;;-3.10;1.00;;;-2.90;92.84;100739.22;4877943;28;118331;-86
2022/03/15 03:13:09;;;;;;;18.33;9.80;;;-3.10;1.00;;;-2.87;92.76;100732.69;4862031;28;114839;-87
2022/03/15 03:15:38;;;;;;;18.55;9.45;;;-3.10;1.00;;;-2.84;93.34;100734.16;4860989;28;128704;-86
2022/03/15 03:18:09;;;;;;;19.05;8.73;;;-3.10;1.00;;;-2.76;93.15;100747.28;4854819;28;128337;-85
2022/03/15 03:20:38;;;;;;;18.08;9.15;;;-3.00;1.00;;;-2.71;92.58;100747.56;4854162;28;117917;-86
2022/03/15 03:23:09;;;;;;;21.45;9.82;;;-2.90;1.00;;;-2.69;92.71;100742.84;4854084;28;113071;-87
2022/03/15 03:25:37;;;;;;;18.98;9.70;;;-2.90;1.00;;;-2.72;92.17;100743.25;4853183;28;129376;-87
2022/03/15 03:28:06;;;;;;;20.23;10.35;;;-3.00;1.00;;;-2.82;92.92;100740.09;4852998;28;129078;-87
2022/03/15 03:34:09;;;;;;;14.88;8.77;;;-3.00;1.00;;;-2.84;92.73;100742.13;4845141;28;113804;-85
2022/03/15 03:39:51;;;;;;;17.67;9.77;;;-3.10;1.00;;;-2.77;92.16;100727.06;4872994;28;127782;-87
2022/03/15 03:42:29;;;;;;;23.60;9.98;;;-3.20;1.00;;;-2.87;91.35;100732.69;4860997;28;118385;-85
2022/03/15 03:45:17;;;;;;;18.73;9.57;;;-3.30;1.00;;;-2.87;91.58;100731.88;4890924;28;115603;-87
2022/03/15 03:48:01;;;;;;;17.30;9.57;;;-3.40;1.00;;;-3.02;92.55;100724.81;4907054;28;130520;-87
2022/03/15 03:50:46;;;;;;;22.30;9.32;;;-3.40;1.00;;;-3.11;92.63;100728.63;4867325;28;128305;-86
2022/03/15 03:53:25;;;;;;;19.75;10.07;;;-3.40;1.00;;;-3.18;93.97;100725.09;4889015;28;118743;-87
2022/03/15 04:04:52;;;;;;;20.63;11.23;;;-3.50;1.00;;;-3.29;93.95;100723.75;4851872;28;117268;-87
2022/03/15 04:07:40;;;;;;;18.80;10.07;;;-3.50;1.00;;;-3.35;93.47;100729.81;4844077;28;114744;-86
2022/03/15 04:10:09;;;;;;;;;;;-3.70;1.00;;;-3.48;94.05;100730.53;4826904;28;129536;-87
2022/03/15 04:12:40;;;;;;;21.90;10.85;;;-3.80;1.00;;;-3.41;93.76;100736.72;4839684;28;128943;-87
2022/03/15 04:18:03;;;;;;;21.77;10.38;;;-3.90;1.00;;;-3.47;93.02;100732.16;4840307;28;114688;-87
2022/03/15 04:20:39;;;;;;;18.38;10.10;;;-4.10;1.00;;;-3.51;92.63;100725.59;4840984;28;128116;-87
2022/03/15 04:26:23;;;;;;;22.52;11.18;;;-4.20;1.00;;;-3.55;92.25;100729.63;4868783;28;120478;-87
2022/03/15 04:32:10;;;;;;;20.10;10.07;;;-4.40;1.00;;;-3.51;91.53;100728.25;4855208;28;129046;-86
2022/03/15 04:34:48;;;;;;;23.10;13.65;;;-4.40;1.00;;;-3.48;91.21;100725.22;4855604;28;129330;-88
2022/03/15 04:40:17;;;;;;;20.05;11.48;;;-4.30;1.00;;;-3.45;91.83;100723.00;4853904;28;116463;-87
2022/03/15 04:43:14;;;;;;;20.85;10.80;;;-4.30;1.00;;;-3.41;90.99;100720.81;4855744;28;130000;-88
2022/03/15 04:48:53;;;;;;;22.77;13.00;;;-4.30;1.00;;;-3.28;90.64;100707.63;4866728;28;117606;-88
2022/03/15 04:51:27;;;;;;;24.67;12.73;;;-4.30;1.00;;;-3.28;90.40;100712.13;4853998;28;114148;-86
2022/03/15 04:54:02;;;;;;;22.08;12.02;;;-4.20;1.00;;;-3.13;90.20;100701.41;4851810;28;129504;-86
2022/03/15 04:56:34;;;;;;;25.35;13.40;;;-4.10;1.00;;;-3.05;90.68;100697.81;4853330;28;129447;-89
2022/03/15 04:59:11;;;;;;;25.65;13.23;;;-4.10;1.00;;;-2.95;89.90;100699.13;4838782;28;117987;-87
2022/03/15 05:01:43;;;;;;;;;;;-4.00;1.00;;;-2.98;89.46;100704.00;4872298;28;114085;-87
2022/03/15 05:06:58;;;;;;;26.53;13.90;;;-3.90;1.00;;;-2.64;89.18;100692.59;4886594;28;129125;-87
2022/03/15 05:09:30;;;;;;;30.33;14.55;;;-3.80;1.00;;;-2.51;88.60;100688.38;4870455;28;118590;-89
2022/03/15 05:12:26;;;;;;;25.08;13.98;;;-3.70;1.00;;;-2.42;88.44;100692.50;4951015;23;116077;-89
2022/03/15 05:18:20;;;;;;;33.38;17.10;;;-3.50;1.00;;;-2.20;88.13;100701.19;4815066;29;129097;-87
2022/03/15 05:27:14;;;;;;;35.33;18.35;;;-3.10;1.00;;;-1.65;87.00;100709.19;4830742;29;129952;-88
2022/03/15 05:29:43;;;;;;;34.03;18.73;;;-2.90;1.00;;;-1.46;86.62;100710.25;4810885;29;128830;-87
2022/03/15 05:32:12;;;;;;;30.85;16.38;;;-2.80;1.00;;;-1.25;86.23;100711.09;4806260;29;117818;-87
2022/03/15 05:34:51;;;;;;;31.10;16.80;;;-2.70;1.00;;;-1.07;85.95;100713.16;4823111;29;115581;-88
2022/03/15 05:37:20;;;;;;;26.83;15.32;;;-2.50;1.00;;;-0.90;85.62;100711.72;4821058;29;129716;-88
2022/03/15 05:40:12;;;;;;;26.25;14.85;;;-2.40;1.00;;;-0.86;84.96;100706.78;4791657;29;129077;-87
2022/03/15 05:43:39;;;;;;;27.88;15.90;;;-2.20;1.00;;;-0.77;84.99;100711.69;4814279;29;116994;-88
2022/03/15 05:46:25;;;;;;;32.28;16.23;;;-1.90;1.00;;;-0.41;84.44;100699.72;4795033;29;116093;-87
2022/03/15 05:48:57;;;;;;;36.05;18.15;;;-1.70;1.00;;;-0.26;83.61;100696.00;4815786;29;128894;-86
2022/03/15 05:51:33;;;;;;;47.50;24.55;;;-1.60;1.00;;;-0.11;83.42;100704.59;4806556;29;128945;-87
2022/03/15 05:54:10;;;;;;;62.90;33.45;;;-1.40;1.00;;;-0.04;82.60;100702.69;4807486;29;117486;-89
2022/03/15 05:56:42;;;;;;;144.93;72.20;;;-1.30;1.00;;;-0.11;82.58;100704.59;4808225;29;114205;-87
2022/03/15 05:59:11;;;;;;;103.60;54.08;;;-1.20;1.00;;;0.11;82.01;100706.94;4810018;29;129127;-86
2022/03/15 06:01:39;;;;;;;55.78;30.10;;;-1.10;1.00;;;0.35;81.58;100703.53;4804062;29;129707;-86
2022/03/15 06:04:18;;;;;;;54.88;30.85;;;-0.90;1.00;;;0.59;80.30;100708.31;4803137;29;118228;-87
2022/03/15 06:06:48;;;;;;;61.00;36.17;;;-0.80;1.00;;;0.90;79.28;100704.81;4805185;29;115357;-86
2022/03/15 06:09:17;;;;;;;58.22;33.58;;;-0.60;1.00;;;1.12;78.75;100707.09;4801452;29;129065;-87
2022/03/15 06:11:48;;;;;;;44.03;26.58;;;-0.50;1.00;;;1.34;77.91;100711.03;4786696;29;128396;-86
2022/03/15 06:14:16;;;;;;;43.42;25.67;;;-0.40;1.00;;;1.49;77.23;100709.84;4804180;29;118362;-85
2022/03/15 06:16:45;;;;;;;39.00;23.55;;;-0.20;1.00;;;1.62;76.49;100717.72;4805624;29;115041;-86
2022/03/15 06:19:32;;;;;;;40.25;23.52;;;-0.10;1.00;;;1.63;75.03;100708.66;4820452;29;128906;-86
2022/03/15 06:22:53;;;;;;;41.58;22.52;;;0.00;1.00;;;1.60;75.25;100714.47;4821048;29;128901;-88
2022/03/15 06:25:25;;;;;;;35.33;21.27;;;0.10;1.00;;;1.69;75.92;100717.66;4804914;29;117184;-87
2022/03/15 06:27:53;;;;;;;37.47;23.05;;;0.20;1.00;;;1.86;74.94;100708.00;4804816;29;115154;-87
2022/03/15 06:30:24;;;;;;;35.97;21.02;;;0.40;1.00;;;2.14;74.53;100718.16;4820323;29;129436;-88
2022/03/15 06:32:52;;;;;;;33.53;19.75;;;0.50;1.00;;;2.38;73.21;100720.13;4803832;29;129779;-86
2022/03/15 06:35:21;;;;;;;25.58;14.82;;;0.70;1.00;;;2.56;72.06;100717.41;4804720;29;118268;-87
2022/03/15 06:37:56;;;;;;;24.10;13.32;;;0.80;1.00;;;2.59;71.52;100724.16;4805976;29;114964;-89
2022/03/15 06:40:26;;;;;;;24.30;14.15;;;0.90;1.00;;;2.83;71.23;100717.81;4804158;29;129869;-88
2022/03/15 06:42:56;;;;;;;21.75;13.10;;;1.00;1.00;;;2.95;70.46;100731.25;4819390;29;129231;-88
2022/03/15 06:45:27;;;;;;;31.90;15.35;;;1.20;1.00;;;3.17;69.39;100728.81;4805115;29;119661;-88
2022/03/15 06:47:56;;;;;;;26.52;13.93;;;1.30;1.00;;;3.16;68.98;100737.91;4804541;29;115360;-87
2022/03/15 06:50:25;;;;;;;26.05;14.18;;;1.40;1.00;;;3.35;68.55;100735.13;4804279;29;128352;-87
2022/03/15 06:52:56;;;;;;;26.98;15.57;;;1.50;1.00;;;3.41;68.14;100732.34;4819002;29;127864;-89
2022/03/15 06:55:24;;;;;;;24.67;14.90;;;1.60;1.00;;;3.49;68.01;100735.72;4804167;29;117514;-87
2022/03/15 06:57:53;;;;;;;24.05;15.30;;;1.70;1.00;;;3.65;67.54;100737.69;4804708;29;115527;-88
2022/03/15 07:00:23;;;;;;;28.67;16.20;;;1.80;1.00;;;3.77;67.00;100726.91;4788708;29;128472;-87
2022/03/15 07:02:53;;;;;;;30.05;15.73;;;1.90;1.00;;;3.79;67.02;100730.22;4804099;29;129037;-87
2022/03/15 07:05:23;;;;;;;25.65;15.15;;;2.00;1.00;;;4.11;66.49;100737.84;4804068;29;118260;-88
2022/03/15 07:07:51;;;;;;;23.95;15.27;;;2.20;1.00;;;4.37;65.11;100736.47;4818072;29;114957;-86
2022/03/15 07:10:23;;;;;;;32.22;16.80;;;2.40;1.00;;;4.42;65.09;100738.44;4820788;29;129244;-87
2022/03/15 07:12:52;;;;;;;29.10;16.13;;;2.40;1.00;;;4.60;64.54;100722.09;4820369;29;129815;-87
2022/03/15 07:15:21;;;;;;;30.02;16.23;;;2.50;1.00;;;4.65;64.40;100727.56;4805539;29;118234;-88
2022/03/15 07:17:51;;;;;;;27.40;15.95;;;2.70;1.00;;;4.68;64.18;100721.72;4811935;29;113899;-85
2022/03/15 07:20:22;;;;;;;27.83;14.77;;;2.80;1.00;;;4.40;64.90;100729.81;4798381;29;129892;-88
2022/03/15 07:22:51;;;;;;;24.48;13.63;;;2.80;1.00;;;4.28;64.98;100725.25;4819575;29;129255;-87
2022/03/15 07:25:23;;;;;;;22.42;14.27;;;3.00;1.00;;;4.44;64.64;100726.41;4804102;29;118098;-89
2022/03/15 07:27:53;;;;;;;28.27;14.07;;;3.10;1.00;;;4.86;63.34;100733.28;4806593;29;115339;-86
2022/03/15 07:30:25;;;;;;;25.35;13.82;;;3.30;1.00;;;5.09;62.50;100726.16;4805150;29;129998;-86
2022/03/15 07:32:59;;;;;;;29.02;13.82;;;3.40;1.00;;;5.10;62.13;100733.16;4804836;29;127874;-86
2022/03/15 07:35:30;;;;;;;25.77;13.50;;;3.60;1.00;;;5.31;60.90;100735.09;4805101;29;116607;-86
2022/03/15 07:38:00;;;;;;;28.20;14.32;;;3.70;1.00;;;5.30;61.64;100717.34;4804805;29;113812;-88
2022/03/15 07:40:43;;;;;;;22.65;13.68;;;3.80;1.00;;;5.27;61.40;100719.72;4820026;29;129447;-87
2022/03/15 07:43:12;;;;;;;27.48;15.50;;;3.90;1.00;;;5.59;61.22;100714.50;4803803;29;128582;-88
2022/03/15 07:45:42;;;;;;;30.15;15.40;;;4.00;1.00;;;5.88;59.24;100722.44;4789741;29;118530;-87
2022/03/15 07:48:11;;;;;;;25.17;14.68;;;4.10;1.00;;;6.14;58.37;100720.91;4821852;29;114899;-88
2022/03/15 07:50:39;;;;;;;25.50;14.15;;;4.20;1.00;;;6.41;58.01;100720.09;4820396;29;129157;-85
2022/03/15 07:53:08;;;;;;;30.52;14.32;;;4.40;1.00;;;6.49;57.78;100719.66;4820289;29;128972;-85
2022/03/15 07:55:40;;;;;;;23.80;13.82;;;4.60;1.00;;;6.81;56.77;100722.38;4826070;29;117897;-84
2022/03/15 07:58:10;;;;;;;23.55;13.65;;;4.80;1.00;;;7.04;56.43;100723.09;4826367;29;114829;-85
2022/03/15 08:00:39;;;;;;;26.85;15.38;;;5.00;1.00;;;7.18;55.06;100721.63;4812444;29;128567;-84
2022/03/15 08:03:16;;;;;;;28.40;14.05;;;5.10;1.00;;;7.38;54.40;100717.41;4813522;29;128686;-85
2022/03/15 08:08:31;;;;;;;30.20;16.33;;;5.40;1.00;;;7.44;55.12;100702.88;4814031;29;114709;-84
2022/03/15 08:11:13;;;;;;;35.80;17.67;;;5.40;1.00;;;7.29;54.47;100709.00;4811989;29;129061;-85
2022/03/15 08:14:14;;;;;;;33.78;18.15;;;5.40;1.00;;;7.30;55.08;100693.59;4811120;29;127458;-86
2022/03/15 08:17:23;;;;;;;32.75;17.20;;;5.40;1.00;;;7.39;54.22;100702.84;4842034;29;117351;-85
2022/03/15 08:23:24;;;;;;;34.42;17.65;;;5.80;1.00;;;7.64;53.14;100691.38;4816477;29;129079;-87
2022/03/15 08:25:58;;;;;;;36.83;17.83;;;5.70;1.00;;;7.59;52.27;100690.50;4809665;29;128255;-88
2022/03/15 08:28:39;;;;;;;32.90;15.63;;;5.70;1.00;;;7.80;51.92;100686.03;4826711;29;118190;-90
2022/03/15 08:34:25;;;;;;;38.35;15.48;;;6.00;1.00;;;8.17;49.56;100690.50;4857820;29;128501;-88
2022/03/15 08:37:12;;;;;;;43.67;16.55;;;6.30;1.00;;;8.39;48.46;100687.56;4853734;29;130224;-88
2022/03/15 08:39:46;;;;;;;37.88;16.90;;;6.40;1.00;;;8.46;48.77;100693.53;4824071;29;118305;-88
2022/03/15 08:42:31;;;;;;;40.50;17.73;;;6.50;1.00;;;8.59;48.60;100701.16;4808415;29;115242;-88
2022/03/15 08:45:34;;;;;;;27.45;13.85;;;6.60;1.00;;;8.49;46.19;100687.59;4828836;29;129087;-88
2022/03/15 08:51:42;;;;;;;23.85;12.88;;;6.60;1.00;;;8.79;44.74;100691.44;4841029;29;119220;-88
2022/03/15 08:54:47;;;;;;;22.85;13.40;;;6.80;1.00;;;8.97;42.77;100693.59;4841223;29;115672;-89
2022/03/15 09:08:02;;;;;;;21.23;12.50;;;7.20;1.00;;;9.39;41.64;100685.41;4871113;29;115295;-88
2022/03/15 09:25:50;;;;;;;41.35;15.18;;;7.80;1.00;;;10.08;38.36;100679.22;4854464;29;129906;-88
2022/03/15 09:45:07;;;;;;;15.98;8.77;;;8.40;1.00;;;10.47;31.39;100668.69;4831202;29;128300;-89
2022/03/15 09:47:47;;;;;;;17.75;8.32;;;8.50;1.00;;;10.77;31.49;100673.91;4826579;29;116609;-87
2022/03/15 09:50:56;;;;;;;16.52;7.82;;;8.60;1.00;;;10.94;30.92;100667.25;4841206;29;114233;-88
2022/03/15 09:53:59;;;;;;;17.52;7.75;;;8.80;1.00;;;11.20;30.58;100675.94;4826810;29;129287;-88
2022/03/15 09:57:36;;;;;;;24.17;8.70;;;9.00;1.00;;;11.03;29.04;100665.53;4838298;29;129531;-87
2022/03/15 10:00:52;;;;;;;;;;;8.90;1.00;;;11.02;29.99;100669.34;4824163;29;116996;-88
2022/03/15 10:07:30;;;;;;;13.13;6.78;;;8.90;1.00;;;11.18;29.02;100666.47;4802863;29;128306;-87
2022/03/15 10:10:24;;;;;;;8.45;4.70;;;9.00;1.00;;;11.36;29.27;100668.47;4826718;29;128802;-88
2022/03/15 10:13:11;;;;;;;;;;;9.20;1.00;;;11.45;29.57;100655.88;4838591;29;118377;-88
2022/03/15 10:26:48;;;;;;;10.55;4.22;;;9.40;1.00;;;11.54;26.81;100655.22;4794454;29;119303;-87
2022/03/15 10:46:04;;;;;;;8.07;3.50;;;9.90;1.00;;;12.12;25.80;100625.13;4862089;29;129757;-88
2022/03/15 10:52:40;;;;;;;6.65;3.13;;;9.90;1.00;;;12.00;26.24;100608.44;4862845;28;118959;-87
2022/03/15 11:13:28;;;;;;;13.80;6.70;;;10.20;1.00;;;12.68;27.98;100582.59;4791649;29;129749;-88
2022/03/15 11:28:32;;;;;;;12.25;6.05;;;10.40;1.00;;;12.23;26.99;100566.72;4867887;29;130683;-89
2022/03/15 11:31:41;;;;;;;12.40;5.60;;;10.30;1.00;;;12.23;26.81;100572.19;4851093;29;129857;-89
2022/03/15 11:35:00;;;;;;;10.75;5.43;;;10.30;1.00;;;12.43;26.93;100575.66;4869756;29;119431;-88
2022/03/15 11:48:31;;;;;;;13.05;7.78;;;10.50;1.00;;;12.60;27.49;100553.31;4854758;29;118397;-87
2022/03/15 11:51:30;;;;;;;14.85;9.10;;;10.60;1.00;;;11.66;28.71;100546.88;4848206;29;113740;-87
2022/03/15 11:54:58;;;;;;;17.23;10.23;;;10.30;1.00;;;11.43;29.46;100549.31;4870469;29;130299;-88
2022/03/15 11:57:58;;;;;;;17.40;9.30;;;10.20;1.00;;;11.19;30.01;100548.53;4839691;29;129499;-89
2022/03/15 12:08:50;;;;;;;17.80;10.80;;;10.30;1.00;;;11.42;30.34;100534.16;4857256;29;128808;-87
2022/03/15 12:27:30;;;;;;;23.45;11.60;;;10.60;1.00;;;12.52;29.80;100513.97;4866841;29;129696;-88
2022/03/15 12:30:55;;;;;;;23.45;12.02;;;10.90;1.00;;;12.86;29.32;100518.25;4838500;29;117494;-89
2022/03/15 12:34:16;;;;;;;22.33;12.68;;;11.10;1.00;;;13.09;28.47;100500.09;4855944;29;116408;-88
2022/03/15 12:37:05;;;;;;;25.98;13.05;;;11.10;1.00;;;13.15;28.95;100498.09;4865908;29;129655;-88
2022/03/15 12:40:12;;;;;;;21.88;12.57;;;11.10;1.00;;;13.11;28.94;100502.53;4851990;29;131972;-88
2022/03/15 12:43:45;;;;;;;25.55;13.27;;;11.20;1.00;;;12.93;29.01;100496.88;4863691;29;118993;-87
2022/03/15 12:46:45;;;;;;;29.10;14.85;;;11.00;1.00;;;12.85;29.82;100489.41;4865110;29;117403;-87
2022/03/15 12:50:36;;;;;;;30.58;15.32;;;11.10;1.00;;;13.13;29.65;100483.94;4864594;28;129964;-88
2022/03/15 13:00:32;;;;;;;;;;;11.00;1.00;;;11.42;31.56;100493.38;4867980;28;115565;-90
2022/03/15 13:04:20;;;;;;;24.83;14.18;;;10.70;1.00;;;11.87;31.28;100493.81;4866307;29;130712;-88
2022/03/15 13:11:21;;;;;;;23.50;14.80;;;10.90;1.00;;;11.95;31.73;100496.97;4866501;29;118307;-89
2022/03/15 13:14:36;;;;;;;16.13;11.48;;;10.90;1.00;;;11.59;31.68;100492.84;4858306;29;115572;-88
2022/03/15 13:28:33;;;;;;;23.38;15.80;;;10.70;1.00;;;11.81;32.31;100478.66;4865021;29;119614;-88
2022/03/15 13:32:13;;;;;;;22.92;11.63;;;10.80;1.00;;;11.66;31.89;100482.41;4861552;29;129662;-88
2022/03/15 13:36:05;;;;;;;20.23;11.77;;;10.80;1.00;;;11.64;31.79;100472.94;4863491;28;129787;-87
2022/03/15 13:39:04;;;;;;;18.63;11.30;;;10.80;1.00;;;11.99;31.13;100465.34;4860217;29;121536;-87
2022/03/15 13:42:02;;;;;;;18.15;10.88;;;10.90;1.00;;;12.07;31.17;100459.22;4845102;29;120055;-87
2022/03/15 13:55:00;;;;;;;20.17;11.15;;;10.70;1.00;;;12.37;31.41;100455.19;4857018;29;118859;-88
2022/03/15 14:04:51;;;;;;;13.10;6.70;;;10.90;1.00;;;11.86;32.47;100443.22;4847523;29;118162;-87
2022/03/15 14:13:39;;;;;;;;;;;10.60;1.00;;;11.52;33.45;100447.00;4866445;28;128996;-88
2022/03/15 14:17:09;;;;;;;16.77;5.75;;;10.60;1.00;;;11.75;33.10;100435.50;4847862;29;120083;-88
2022/03/15 14:27:27;;;;;;;16.77;6.07;;;10.50;1.00;;;12.14;33.44;100443.34;4850623;29;129073;-87
2022/03/15 14:30:43;;;;;;;9.57;5.70;;;10.50;1.00;;;11.94;34.80;100435.53;4845735;29;119076;-90
2022/03/15 14:40:23;;;;;;;9.48;4.95;;;10.40;1.00;;;11.91;35.53;100427.94;4834968;29;128806;-88
2022/03/15 14:46:48;;;;;;;;;;;10.30;1.00;;;11.59;36.85;100437.66;4861939;29;121251;-87
2022/03/15 14:49:37;;;;;;;9.40;4.60;;;10.10;1.00;;;11.66;36.65;100432.69;4834566;29;129430;-88
2022/03/15 14:55:59;;;;;;;9.52;4.20;;;10.10;1.00;;;12.03;36.37;100425.59;4859955;29;120309;-88
2022/03/15 14:58:46;;;;;;;8.25;4.40;;;10.40;1.00;;;12.57;36.00;100432.22;4861640;29;118882;-87
2022/03/15 15:01:27;;;;;;;10.85;5.50;;;10.60;1.00;;;12.93;35.15;100426.06;4863357;28;130227;-87
2022/03/15 15:14:46;;;;;;;9.38;4.95;;;10.90;1.00;;;11.94;37.49;100427.38;4861084;28;128304;-88
2022/03/15 15:21:03;;;;;;;11.43;5.30;;;9.90;1.00;;;11.79;38.13;100423.75;4873792;28;119932;-88
2022/03/15 15:33:46;;;;;;;15.48;7.82;;;11.20;1.00;;;15.25;31.68;100444.78;4865313;29;118700;-89
2022/03/15 15:50:06;;;;;;;12.10;5.20;;;11.50;1.00;;;14.71;31.88;100436.81;4863458;29;121951;-89
2022/03/15 15:56:51;;;;;;;10.18;5.63;;;10.50;1.00;;;13.86;33.31;100450.47;4864570;28;128876;-88
2022/03/15 15:59:30;;;;;;;13.15;5.45;;;10.30;1.00;;;13.63;33.42;100448.53;4866805;29;117902;-87
2022/03/15 16:02:09;;;;;;;10.75;5.55;;;10.10;1.00;;;13.45;33.21;100452.22;4867929;28;117374;-88
2022/03/15 16:04:43;;;;;;;10.70;5.45;;;9.90;1.00;;;12.51;34.35;100452.47;4844791;29;128976;-89
2022/03/15 16:10:37;;;;;;;23.33;7.97;;;8.70;1.00;;;10.24;38.95;100443.09;4840808;29;120038;-88
2022/03/15 16:14:07;;;;;;;12.30;5.63;;;8.10;1.00;;;9.51;40.07;100452.91;4874585;28;118190;-87
2022/03/15 16:17:14;;;;;;;11.77;6.07;;;7.60;1.00;;;8.83;40.62;100454.31;4847830;29;129258;-87
2022/03/15 16:23:46;;;;;;;11.80;5.47;;;6.90;1.00;;;7.98;42.04;100454.97;4867053;29;119857;-86
2022/03/15 16:30:28;;;;;;;9.05;5.30;;;6.40;1.00;;;7.41;42.76;100446.81;4861328;29;127871;-86
2022/03/15 16:39:42;;;;;;;13.95;5.07;;;5.70;1.00;;;6.75;44.05;100452.81;4863666;28;119945;-88
2022/03/15 16:42:50;;;;;;;12.55;5.03;;;5.50;1.00;;;6.55;44.71;100462.41;4826657;29;128329;-87
2022/03/15 16:45:38;;;;;;;12.30;5.30;;;5.50;1.00;;;6.35;45.75;100456.88;4845359;29;128883;-86
2022/03/15 16:48:19;;;;;;;16.35;7.82;;;5.50;1.00;;;6.16;46.54;100460.00;4843422;29;120261;-89
2022/03/15 16:51:19;;;;;;;13.27;6.35;;;5.30;1.00;;;5.92;47.63;100459.50;4835017;29;120677;-88
2022/03/15 16:53:58;;;;;;;12.98;6.25;;;5.10;1.00;;;5.84;47.86;100474.25;4837882;29;128324;-86
2022/03/15 17:00:46;;;;;;;16.42;6.55;;;4.70;1.00;;;5.55;48.04;100465.66;4860680;28;119201;-88
2022/03/15 17:18:48;;;;;;;13.93;6.35;;;4.00;1.00;;;5.08;48.13;100476.97;4843951;29;119414;-87
2022/03/15 17:21:33;;;;;;;21.70;7.18;;;3.90;1.00;;;5.05;48.41;100483.66;4823969;29;128899;-88
2022/03/15 17:31:06;;;;;;;11.27;5.53;;;3.80;1.00;;;4.76;48.88;100470.38;4862702;29;118902;-86
2022/03/15 17:33:56;;;;;;;11.00;5.47;;;3.90;1.00;;;4.64;49.44;100483.94;4828890;29;129897;-89
2022/03/15 17:36:29;;;;;;;12.18;4.65;;;3.90;1.00;;;4.61;49.25;100484.44;4856776;29;129162;-88
2022/03/15 17:39:23;;;;;;;12.77;4.70;;;3.90;1.00;;;4.59;49.07;100475.78;4842992;29;119054;-88
2022/03/15 17:41:59;;;;;;;10.70;5.05;;;3.90;1.00;;;4.58;49.04;100479.56;4828673;29;118717;-86
2022/03/15 17:44:37;;;;;;;9.90;5.18;;;3.80;1.00;;;4.54;48.95;100473.03;4855534;28;128166;-86
2022/03/15 17:47:09;;;;;;;8.55;4.55;;;3.70;1.00;;;4.48;49.38;100474.03;4855887;29;129387;-88
2022/03/15 17:52:37;;;;;;;18.25;7.45;;;3.80;1.00;;;4.38;50.10;100473.88;4843472;29;121145;-86
2022/03/15 17:55:23;;;;;;;15.77;7.68;;;3.70;1.00;;;4.24;50.14;100468.84;4857396;29;129005;-86
2022/03/15 18:00:57;;;;;;;15.25;6.97;;;3.50;1.00;;;4.09;50.58;100473.97;4856930;29;120445;-87
2022/03/15 18:03:30;;;;;;;14.23;6.45;;;3.40;1.00;;;3.99;50.84;100477.31;4841667;29;118981;-87
2022/03/15 18:06:29;;;;;;;10.07;5.57;;;3.40;1.00;;;3.94;50.95;100464.63;4826773;29;129275;-88
2022/03/15 18:09:21;;;;;;;16.73;6.40;;;3.40;1.00;;;4.00;50.43;100462.81;4862896;29;129328;-87
2022/03/15 18:15:24;;;;;;;14.38;5.55;;;3.10;1.00;;;4.01;50.04;100463.66;4857546;29;119021;-89
2022/03/15 18:18:47;;;;;;;11.88;5.75;;;3.00;1.00;;;3.86;50.38;100465.00;4856938;29;128273;-88